Edgefield, South Carolina
Current Conditions -  °F | °C
As of 11:35 AM on Thursday 29 Jan 2015 (Local Time) from KAIK Reporting Station
Clear Clear  
Wind Chill: 44°   Ceiling: Unl
Heat Index: 48°   Visibility: 10mi
Dew Point: 27°   Wind: 9mph
Humidity: 43%   Direction: 190°S
Pressure: 30.35"   Gusts: NA
Location:  33.79°N, 81.93°W
Report Text: KAIK 291635Z AUTO 19008KT 10SM CLR 09/M03 A3035 RMK AO2 PNO
Loading
Personal Weather Stations






























Interactive Weather Map New forecast layout! Learn more

10-Day Weather Forecast

Advertisements
Track Severe Weather on mobile